sensor_id;sensor_type;location;lat;lon;timestamp;pressure;altitude;pressure_sealevel;temperature;humidity
4586;BME280;2305;50.118;8.952;2023-07-13T00:01:14;100388.53;;;21.89;100.00
4586;BME280;2305;50.118;8.952;2023-07-13T00:03:42;100394.53;;;21.91;100.00
4586;BME280;2305;50.118;8.952;2023-07-13T00:06:10;100398.44;;;21.88;100.00
4586;BME280;2305;50.118;8.952;2023-07-13T00:08:39;100395.75;;;21.88;100.00
4586;BME280;2305;50.118;8.952;2023-07-13T00:11:09;100409.78;;;21.90;100.00
4586;BME280;2305;50.118;8.952;2023-07-13T00:13:38;100408.38;;;21.94;100.00
4586;BME280;2305;50.118;8.952;2023-07-13T00:16:10;100403.66;;;21.96;100.00
4586;BME280;2305;50.118;8.952;2023-07-13T00:18:38;100401.84;;;22.03;100.00
4586;BME280;2305;50.118;8.952;2023-07-13T00:21:07;100400.44;;;22.07;100.00
4586;BME280;2305;50.118;8.952;2023-07-13T00:23:37;100399.78;;;22.05;100.00
4586;BME280;2305;50.118;8.952;2023-07-13T00:26:08;100404.78;;;22.08;100.00
4586;BME280;2305;50.118;8.952;2023-07-13T00:28:41;100414.06;;;22.12;100.00
4586;BME280;2305;50.118;8.952;2023-07-13T00:31:13;100413.69;;;22.15;100.00
4586;BME280;2305;50.118;8.952;2023-07-13T00:33:42;100411.00;;;22.15;100.00
4586;BME280;2305;50.118;8.952;2023-07-13T00:36:12;100414.50;;;22.16;100.00
4586;BME280;2305;50.118;8.952;2023-07-13T00:38:41;100408.16;;;22.23;100.00
4586;BME280;2305;50.118;8.952;2023-07-13T00:41:10;100414.38;;;22.24;100.00
4586;BME280;2305;50.118;8.952;2023-07-13T00:43:38;100408.41;;;22.28;100.00
4586;BME280;2305;50.118;8.952;2023-07-13T00:46:25;100415.19;;;22.24;100.00
4586;BME280;2305;50.118;8.952;2023-07-13T00:48:59;100407.53;;;22.21;100.00
4586;BME280;2305;50.118;8.952;2023-07-13T00:51:33;100409.19;;;22.22;100.00
4586;BME280;2305;50.118;8.952;2023-07-13T00:54:06;100407.97;;;22.25;99.36
4586;BME280;2305;50.118;8.952;2023-07-13T00:56:35;100405.91;;;22.27;98.20
4586;BME280;2305;50.118;8.952;2023-07-13T00:59:07;100410.50;;;22.33;97.08
4586;BME280;2305;50.118;8.952;2023-07-13T01:01:37;100409.34;;;22.42;94.77
4586;BME280;2305;50.118;8.952;2023-07-13T01:04:06;100413.63;;;22.36;94.49
4586;BME280;2305;50.118;8.952;2023-07-13T01:06:35;100414.38;;;22.24;95.14
4586;BME280;2305;50.118;8.952;2023-07-13T01:09:05;100415.59;;;22.21;96.00
4586;BME280;2305;50.118;8.952;2023-07-13T01:11:35;100412.91;;;22.21;93.86
4586;BME280;2305;50.118;8.952;2023-07-13T01:14:04;100411.63;;;22.17;95.96
4586;BME280;2305;50.118;8.952;2023-07-13T01:16:34;100410.38;;;22.13;95.68
4586;BME280;2305;50.118;8.952;2023-07-13T01:19:12;100410.81;;;22.17;95.18
4586;BME280;2305;50.118;8.952;2023-07-13T01:21:49;100417.34;;;22.08;95.01
4586;BME280;2305;50.118;8.952;2023-07-13T01:24:17;100425.75;;;21.98;96.26
4586;BME280;2305;50.118;8.952;2023-07-13T01:26:47;100416.88;;;21.98;96.37
4586;BME280;2305;50.118;8.952;2023-07-13T01:29:15;100413.94;;;21.93;97.13
4586;BME280;2305;50.118;8.952;2023-07-13T01:31:45;100415.41;;;21.95;96.77
4586;BME280;2305;50.118;8.952;2023-07-13T01:34:13;100415.50;;;21.81;97.48
4586;BME280;2305;50.118;8.952;2023-07-13T01:36:43;100412.59;;;21.76;98.21
4586;BME280;2305;50.118;8.952;2023-07-13T01:39:12;100418.31;;;21.73;98.71
4586;BME280;2305;50.118;8.952;2023-07-13T01:41:43;100424.09;;;21.70;99.62
4586;BME280;2305;50.118;8.952;2023-07-13T01:44:12;100420.56;;;21.69;99.64
4586;BME280;2305;50.118;8.952;2023-07-13T01:46:44;100415.63;;;21.73;99.13
4586;BME280;2305;50.118;8.952;2023-07-13T01:49:12;100412.06;;;21.66;99.90
4586;BME280;2305;50.118;8.952;2023-07-13T01:51:40;100415.31;;;21.61;99.81
4586;BME280;2305;50.118;8.952;2023-07-13T01:54:11;100423.34;;;21.61;100.00
4586;BME280;2305;50.118;8.952;2023-07-13T01:56:39;100419.41;;;21.57;100.00
4586;BME280;2305;50.118;8.952;2023-07-13T01:59:10;100421.84;;;21.52;100.00
4586;BME280;2305;50.118;8.952;2023-07-13T02:01:38;100424.25;;;21.47;100.00
4586;BME280;2305;50.118;8.952;2023-07-13T02:04:06;100430.38;;;21.41;100.00
4586;BME280;2305;50.118;8.952;2023-07-13T02:06:34;100420.09;;;21.45;100.00
4586;BME280;2305;50.118;8.952;2023-07-13T02:09:02;100427.47;;;21.36;100.00
4586;BME280;2305;50.118;8.952;2023-07-13T02:11:33;100433.59;;;21.30;100.00
4586;BME280;2305;50.118;8.952;2023-07-13T02:14:02;100432.97;;;21.28;100.00
4586;BME280;2305;50.118;8.952;2023-07-13T02:16:30;100436.84;;;21.26;100.00
4586;BME280;2305;50.118;8.952;2023-07-13T02:18:59;100430.00;;;21.23;100.00
4586;BME280;2305;50.118;8.952;2023-07-13T02:21:28;100439.66;;;21.18;100.00
4586;BME280;2305;50.118;8.952;2023-07-13T02:23:57;100442.06;;;21.13;100.00
4586;BME280;2305;50.118;8.952;2023-07-13T02:26:25;100453.16;;;21.10;100.00
4586;BME280;2305;50.118;8.952;2023-07-13T02:28:54;100446.50;;;21.06;100.00
4586;BME280;2305;50.118;8.952;2023-07-13T02:31:22;100451.41;;;21.02;100.00
4586;BME280;2305;50.118;8.952;2023-07-13T02:33:53;100455.88;;;20.95;100.00
4586;BME280;2305;50.118;8.952;2023-07-13T02:36:21;100467.22;;;20.97;100.00
4586;BME280;2305;50.118;8.952;2023-07-13T02:38:49;100466.19;;;20.98;100.00
4586;BME280;2305;50.118;8.952;2023-07-13T02:41:18;100460.66;;;21.00;100.00
4586;BME280;2305;50.118;8.952;2023-07-13T02:43:46;100463.81;;;21.03;100.00
4586;BME280;2305;50.118;8.952;2023-07-13T02:46:18;100451.41;;;21.02;100.00
4586;BME280;2305;50.118;8.952;2023-07-13T02:48:47;100463.81;;;21.03;100.00
4586;BME280;2305;50.118;8.952;2023-07-13T02:51:15;100462.53;;;20.99;100.00
4586;BME280;2305;50.118;8.952;2023-07-13T02:53:43;100469.91;;;20.97;100.00
4586;BME280;2305;50.118;8.952;2023-07-13T02:56:12;100467.78;;;20.93;100.00
4586;BME280;2305;50.118;8.952;2023-07-13T02:58:43;100474.63;;;20.95;100.00
4586;BME280;2305;50.118;8.952;2023-07-13T03:01:14;100472.34;;;20.92;100.00
4586;BME280;2305;50.118;8.952;2023-07-13T03:03:47;100478.34;;;20.94;100.00
4586;BME280;2305;50.118;8.952;2023-07-13T03:06:16;100477.13;;;20.97;100.00
4586;BME280;2305;50.118;8.952;2023-07-13T03:08:50;100479.41;;;21.00;100.00
4586;BME280;2305;50.118;8.952;2023-07-13T03:11:19;100486.88;;;21.04;100.00
4586;BME280;2305;50.118;8.952;2023-07-13T03:13:57;100481.94;;;21.01;100.00
4586;BME280;2305;50.118;8.952;2023-07-13T03:16:28;100493.00;;;20.98;100.00
4586;BME280;2305;50.118;8.952;2023-07-13T03:18:58;100482.28;;;20.98;100.00
4586;BME280;2305;50.118;8.952;2023-07-13T03:21:27;100484.59;;;21.01;100.00
4586;BME280;2305;50.118;8.952;2023-07-13T03:23:57;100484.25;;;20.90;100.00
4586;BME280;2305;50.118;8.952;2023-07-13T03:26:26;100480.81;;;20.81;100.00
4586;BME280;2305;50.118;8.952;2023-07-13T03:28:55;100494.03;;;20.68;100.00
4586;BME280;2305;50.118;8.952;2023-07-13T03:31:25;100498.00;;;20.58;100.00
4586;BME280;2305;50.118;8.952;2023-07-13T03:33:59;100487.84;;;20.53;100.00
4586;BME280;2305;50.118;8.952;2023-07-13T03:36:30;100486.81;;;20.54;100.00
4586;BME280;2305;50.118;8.952;2023-07-13T03:39:03;100495.59;;;20.48;100.00
4586;BME280;2305;50.118;8.952;2023-07-13T03:41:53;100494.94;;;20.46;100.00
4586;BME280;2305;50.118;8.952;2023-07-13T03:44:22;100496.44;;;20.49;100.00
4586;BME280;2305;50.118;8.952;2023-07-13T03:46:54;100502.59;;;20.49;100.00
4586;BME280;2305;50.118;8.952;2023-07-13T03:49:24;100504.44;;;20.34;100.00
4586;BME280;2305;50.118;8.952;2023-07-13T03:51:55;100509.88;;;20.26;100.00
4586;BME280;2305;50.118;8.952;2023-07-13T03:54:24;100499.44;;;20.17;100.00
4586;BME280;2305;50.118;8.952;2023-07-13T03:56:53;100510.81;;;20.19;100.00
4586;BME280;2305;50.118;8.952;2023-07-13T03:59:22;100509.16;;;20.18;100.00
4586;BME280;2305;50.118;8.952;2023-07-13T04:01:51;100509.41;;;20.08;100.00
4586;BME280;2305;50.118;8.952;2023-07-13T04:04:19;100513.09;;;20.07;100.00
4586;BME280;2305;50.118;8.952;2023-07-13T04:06:49;100518.44;;;20.07;100.00
4586;BME280;2305;50.118;8.952;2023-07-13T04:09:19;100528.47;;;20.05;100.00
4586;BME280;2305;50.118;8.952;2023-07-13T04:11:47;100521.50;;;19.96;100.00
4586;BME280;2305;50.118;8.952;2023-07-13T04:14:18;100524.41;;;19.87;100.00
4586;BME280;2305;50.118;8.952;2023-07-13T04:16:46;100525.03;;;19.74;100.00
4586;BME280;2305;50.118;8.952;2023-07-13T04:19:14;100531.56;;;19.72;100.00
4586;BME280;2305;50.118;8.952;2023-07-13T04:21:42;100539.25;;;19.75;100.00
4586;BME280;2305;50.118;8.952;2023-07-13T04:24:12;100528.72;;;19.73;100.00
4586;BME280;2305;50.118;8.952;2023-07-13T04:26:40;100524.72;;;19.69;100.00
4586;BME280;2305;50.118;8.952;2023-07-13T04:29:08;100527.94;;;19.65;100.00
4586;BME280;2305;50.118;8.952;2023-07-13T04:31:38;100541.34;;;19.57;100.00
4586;BME280;2305;50.118;8.952;2023-07-13T04:34:06;100538.38;;;19.52;100.00
4586;BME280;2305;50.118;8.952;2023-07-13T04:36:34;100541.88;;;19.52;100.00
4586;BME280;2305;50.118;8.952;2023-07-13T04:39:04;100527.91;;;19.42;100.00
4586;BME280;2305;50.118;8.952;2023-07-13T04:41:35;100533.44;;;19.41;100.00
4586;BME280;2305;50.118;8.952;2023-07-13T04:44:05;100541.94;;;19.44;100.00
4586;BME280;2305;50.118;8.952;2023-07-13T04:46:33;100539.06;;;19.46;100.00
4586;BME280;2305;50.118;8.952;2023-07-13T04:49:01;100550.78;;;19.45;100.00
4586;BME280;2305;50.118;8.952;2023-07-13T04:51:30;100544.47;;;19.38;100.00
4586;BME280;2305;50.118;8.952;2023-07-13T04:53:58;100546.19;;;19.31;100.00
4586;BME280;2305;50.118;8.952;2023-07-13T04:56:27;100544.66;;;19.36;100.00
4586;BME280;2305;50.118;8.952;2023-07-13T04:58:56;100536.94;;;19.41;100.00
4586;BME280;2305;50.118;8.952;2023-07-13T05:01:25;100544.66;;;19.36;100.00
4586;BME280;2305;50.118;8.952;2023-07-13T05:03:54;100546.97;;;19.39;100.00
4586;BME280;2305;50.118;8.952;2023-07-13T05:06:24;100544.25;;;19.47;100.00
4586;BME280;2305;50.118;8.952;2023-07-13T05:08:52;100542.69;;;19.53;100.00
4586;BME280;2305;50.118;8.952;2023-07-13T05:11:20;100542.69;;;19.61;100.00
4586;BME280;2305;50.118;8.952;2023-07-13T05:13:49;100541.13;;;19.66;100.00
4586;BME280;2305;50.118;8.952;2023-07-13T05:16:19;100542.91;;;19.74;100.00
4586;BME280;2305;50.118;8.952;2023-07-13T05:18:48;100547.44;;;19.73;100.00
4586;BME280;2305;50.118;8.952;2023-07-13T05:21:15;100548.00;;;19.83;100.00
4586;BME280;2305;50.118;8.952;2023-07-13T05:23:43;100543.44;;;19.92;100.00
4586;BME280;2305;50.118;8.952;2023-07-13T05:26:12;100535.72;;;19.97;100.00
4586;BME280;2305;50.118;8.952;2023-07-13T05:31:59;100537.16;;;20.44;100.00
4586;BME280;2305;50.118;8.952;2023-07-13T05:34:28;100545.72;;;20.54;100.00
4586;BME280;2305;50.118;8.952;2023-07-13T05:36:56;100546.19;;;20.43;100.00
4586;BME280;2305;50.118;8.952;2023-07-13T05:39:24;100551.16;;;20.46;100.00
4586;BME280;2305;50.118;8.952;2023-07-13T05:41:54;100554.94;;;20.52;100.00
4586;BME280;2305;50.118;8.952;2023-07-13T05:44:22;100552.22;;;20.74;100.00
4586;BME280;2305;50.118;8.952;2023-07-13T05:46:50;100559.13;;;20.83;100.00
4586;BME280;2305;50.118;8.952;2023-07-13T05:49:19;100559.81;;;20.85;100.00
4586;BME280;2305;50.118;8.952;2023-07-13T05:51:47;100558.59;;;20.73;100.00
4586;BME280;2305;50.118;8.952;2023-07-13T05:54:15;100548.59;;;20.67;100.00
4586;BME280;2305;50.118;8.952;2023-07-13T05:56:46;100560.97;;;20.68;100.00
4586;BME280;2305;50.118;8.952;2023-07-13T05:59:14;100561.91;;;20.75;100.00
4586;BME280;2305;50.118;8.952;2023-07-13T06:01:41;100563.78;;;20.75;100.00
4586;BME280;2305;50.118;8.952;2023-07-13T06:04:10;100561.09;;;20.75;100.00
4586;BME280;2305;50.118;8.952;2023-07-13T06:06:41;100565.88;;;20.79;100.00
4586;BME280;2305;50.118;8.952;2023-07-13T06:09:09;100565.16;;;20.85;100.00
4586;BME280;2305;50.118;8.952;2023-07-13T06:11:37;100570.06;;;21.11;100.00
4586;BME280;2305;50.118;8.952;2023-07-13T06:14:06;100571.84;;;21.04;100.00
4586;BME280;2305;50.118;8.952;2023-07-13T06:16:34;100571.34;;;21.15;100.00
4586;BME280;2305;50.118;8.952;2023-07-13T06:19:02;100569.47;;;21.30;100.00
4586;BME280;2305;50.118;8.952;2023-07-13T06:21:30;100569.50;;;21.15;100.00
4586;BME280;2305;50.118;8.952;2023-07-13T06:24:00;100572.19;;;21.15;100.00
4586;BME280;2305;50.118;8.952;2023-07-13T06:26:28;100575.13;;;21.20;100.00
4586;BME280;2305;50.118;8.952;2023-07-13T06:28:56;100587.25;;;21.16;100.00
4586;BME280;2305;50.118;8.952;2023-07-13T06:31:24;100580.47;;;21.20;100.00
4586;BME280;2305;50.118;8.952;2023-07-13T06:33:56;100582.88;;;21.30;100.00
4586;BME280;2305;50.118;8.952;2023-07-13T06:36:24;100594.34;;;21.38;100.00
4586;BME280;2305;50.118;8.952;2023-07-13T06:38:52;100588.34;;;21.36;100.00
4586;BME280;2305;50.118;8.952;2023-07-13T06:41:22;100590.16;;;21.50;100.00
4586;BME280;2305;50.118;8.952;2023-07-13T06:43:53;100589.03;;;21.45;100.00
4586;BME280;2305;50.118;8.952;2023-07-13T06:46:21;100589.25;;;21.43;100.00
4586;BME280;2305;50.118;8.952;2023-07-13T06:48:50;100594.22;;;21.46;100.00
4586;BME280;2305;50.118;8.952;2023-07-13T06:51:21;100597.00;;;21.53;100.00
4586;BME280;2305;50.118;8.952;2023-07-13T06:53:49;100598.63;;;21.68;100.00
4586;BME280;2305;50.118;8.952;2023-07-13T06:56:17;100601.19;;;21.76;97.82
4586;BME280;2305;50.118;8.952;2023-07-13T06:58:47;100597.59;;;21.84;96.52
4586;BME280;2305;50.118;8.952;2023-07-13T07:01:15;100593.28;;;21.89;94.81
4586;BME280;2305;50.118;8.952;2023-07-13T07:03:48;100594.81;;;21.98;94.74
4586;BME280;2305;50.118;8.952;2023-07-13T07:06:19;100593.03;;;22.05;93.91
4586;BME280;2305;50.118;8.952;2023-07-13T07:08:50;100591.66;;;22.09;93.86
4586;BME280;2305;50.118;8.952;2023-07-13T07:11:21;100597.13;;;22.22;91.74
4586;BME280;2305;50.118;8.952;2023-07-13T07:13:52;100605.63;;;22.26;92.47
4586;BME280;2305;50.118;8.952;2023-07-13T07:16:21;100600.00;;;22.21;93.54
4586;BME280;2305;50.118;8.952;2023-07-13T07:18:49;100617.31;;;22.18;95.36
4586;BME280;2305;50.118;8.952;2023-07-13T07:21:17;100601.97;;;22.33;93.38
4586;BME280;2305;50.118;8.952;2023-07-13T07:23:45;100607.94;;;22.29;93.21
4586;BME280;2305;50.118;8.952;2023-07-13T07:26:13;100607.78;;;22.37;92.91
4586;BME280;2305;50.118;8.952;2023-07-13T07:28:41;100607.16;;;22.56;91.80
4586;BME280;2305;50.118;8.952;2023-07-13T07:31:16;100601.75;;;22.49;92.45
4586;BME280;2305;50.118;8.952;2023-07-13T07:33:47;100608.13;;;22.48;92.78
4586;BME280;2305;50.118;8.952;2023-07-13T07:36:16;100609.41;;;22.52;92.77
4586;BME280;2305;50.118;8.952;2023-07-13T07:38:48;100616.94;;;22.63;91.26
4586;BME280;2305;50.118;8.952;2023-07-13T07:41:16;100614.69;;;22.67;89.46
4586;BME280;2305;50.118;8.952;2023-07-13T07:43:47;100611.19;;;22.73;89.28
4586;BME280;2305;50.118;8.952;2023-07-13T07:46:17;100616.47;;;22.81;86.65
4586;BME280;2305;50.118;8.952;2023-07-13T07:48:45;100610.06;;;22.88;85.74
4586;BME280;2305;50.118;8.952;2023-07-13T07:51:14;100605.50;;;22.82;86.88
4586;BME280;2305;50.118;8.952;2023-07-13T07:53:43;100607.22;;;22.96;85.61
4586;BME280;2305;50.118;8.952;2023-07-13T07:56:12;100610.13;;;22.95;87.10
4586;BME280;2305;50.118;8.952;2023-07-13T07:58:43;100604.78;;;23.01;86.71
4586;BME280;2305;50.118;8.952;2023-07-13T08:01:14;100619.72;;;23.10;86.58
4586;BME280;2305;50.118;8.952;2023-07-13T08:03:47;100610.13;;;23.29;83.57
4586;BME280;2305;50.118;8.952;2023-07-13T08:06:18;100611.41;;;23.39;82.14
4586;BME280;2305;50.118;8.952;2023-07-13T08:08:51;100618.94;;;23.50;80.35
4586;BME280;2305;50.118;8.952;2023-07-13T08:11:20;100606.34;;;23.57;80.63
4586;BME280;2305;50.118;8.952;2023-07-13T08:13:52;100616.06;;;23.65;81.27
4586;BME280;2305;50.118;8.952;2023-07-13T08:16:24;100619.00;;;23.76;78.96
4586;BME280;2305;50.118;8.952;2023-07-13T08:18:54;100614.28;;;23.78;78.70
4586;BME280;2305;50.118;8.952;2023-07-13T08:21:23;100614.13;;;23.86;77.39
4586;BME280;2305;50.118;8.952;2023-07-13T08:23:51;100612.28;;;23.93;75.24
4586;BME280;2305;50.118;8.952;2023-07-13T08:26:21;100625.72;;;23.93;75.40
4586;BME280;2305;50.118;8.952;2023-07-13T08:28:50;100602.72;;;23.97;75.53
4586;BME280;2305;50.118;8.952;2023-07-13T08:31:18;100599.66;;;24.00;77.06
4586;BME280;2305;50.118;8.952;2023-07-13T08:33:46;100605.69;;;24.09;75.88
4586;BME280;2305;50.118;8.952;2023-07-13T08:36:15;100608.16;;;24.23;75.05
4586;BME280;2305;50.118;8.952;2023-07-13T08:38:46;100609.41;;;24.33;74.22
4586;BME280;2305;50.118;8.952;2023-07-13T08:41:23;100602.59;;;24.38;73.63
4586;BME280;2305;50.118;8.952;2023-07-13T08:43:56;100605.09;;;24.45;72.78
4586;BME280;2305;50.118;8.952;2023-07-13T08:46:28;100596.38;;;24.50;70.34
4586;BME280;2305;50.118;8.952;2023-07-13T08:49:06;100602.84;;;24.62;68.74
4586;BME280;2305;50.118;8.952;2023-07-13T08:51:42;100601.16;;;24.61;64.88
4586;BME280;2305;50.118;8.952;2023-07-13T08:54:20;100600.72;;;24.57;68.46
4586;BME280;2305;50.118;8.952;2023-07-13T08:56:54;100613.59;;;24.68;64.92
4586;BME280;2305;50.118;8.952;2023-07-13T08:59:26;100604.47;;;24.76;64.21
4586;BME280;2305;50.118;8.952;2023-07-13T09:02:20;100599.06;;;24.82;62.15
4586;BME280;2305;50.118;8.952;2023-07-13T09:04:54;100603.41;;;24.70;61.45
4586;BME280;2305;50.118;8.952;2023-07-13T09:07:34;100603.84;;;24.67;61.81
4586;BME280;2305;50.118;8.952;2023-07-13T09:10:14;100610.28;;;24.73;59.74
4586;BME280;2305;50.118;8.952;2023-07-13T09:12:54;100596.38;;;24.69;59.68
4586;BME280;2305;50.118;8.952;2023-07-13T09:15:30;100604.66;;;24.68;61.49
4586;BME280;2305;50.118;8.952;2023-07-13T09:18:02;100601.56;;;24.77;61.63
4586;BME280;2305;50.118;8.952;2023-07-13T09:20:36;100599.69;;;24.78;61.59
4586;BME280;2305;50.118;8.952;2023-07-13T09:23:10;100618.97;;;24.75;61.49
4586;BME280;2305;50.118;8.952;2023-07-13T09:25:41;100605.69;;;24.93;58.08
4586;BME280;2305;50.118;8.952;2023-07-13T09:28:18;100597.97;;;25.03;57.09
4586;BME280;2305;50.118;8.952;2023-07-13T09:30:51;100611.88;;;25.06;57.83
4586;BME280;2305;50.118;8.952;2023-07-13T09:33:21;100614.72;;;25.18;56.44
4586;BME280;2305;50.118;8.952;2023-07-13T09:35:50;100593.81;;;25.07;56.28
4586;BME280;2305;50.118;8.952;2023-07-13T09:38:22;100606.28;;;25.01;55.94
4586;BME280;2305;50.118;8.952;2023-07-13T09:41:11;100601.31;;;24.85;56.40
4586;BME280;2305;50.118;8.952;2023-07-13T09:44:01;100597.63;;;24.86;56.09
4586;BME280;2305;50.118;8.952;2023-07-13T09:46:29;100602.56;;;24.89;55.25
4586;BME280;2305;50.118;8.952;2023-07-13T09:48:57;100598.81;;;25.03;53.76
4586;BME280;2305;50.118;8.952;2023-07-13T09:51:26;100595.91;;;25.05;54.73
4586;BME280;2305;50.118;8.952;2023-07-13T09:53:55;100599.78;;;25.22;53.49
4586;BME280;2305;50.118;8.952;2023-07-13T09:56:26;100600.19;;;25.32;53.32
4586;BME280;2305;50.118;8.952;2023-07-13T09:58:55;100594.34;;;25.48;53.54
4586;BME280;2305;50.118;8.952;2023-07-13T10:01:35;100598.97;;;25.72;53.78
4586;BME280;2305;50.118;8.952;2023-07-13T10:04:10;100589.38;;;25.82;53.76
4586;BME280;2305;50.118;8.952;2023-07-13T10:06:42;100594.97;;;25.87;51.33
4586;BME280;2305;50.118;8.952;2023-07-13T10:09:16;100600.91;;;26.02;50.21
4586;BME280;2305;50.118;8.952;2023-07-13T10:11:50;100604.00;;;26.06;49.22
4586;BME280;2305;50.118;8.952;2023-07-13T10:14:21;100600.72;;;26.04;50.00
4586;BME280;2305;50.118;8.952;2023-07-13T10:16:57;100600.72;;;26.04;49.13
4586;BME280;2305;50.118;8.952;2023-07-13T10:19:31;100598.78;;;26.11;50.23
4586;BME280;2305;50.118;8.952;2023-07-13T10:22:02;100598.72;;;26.17;49.96
4586;BME280;2305;50.118;8.952;2023-07-13T10:24:37;100590.06;;;26.33;49.40
4586;BME280;2305;50.118;8.952;2023-07-13T10:27:14;100586.59;;;26.51;49.34
4586;BME280;2305;50.118;8.952;2023-07-13T10:29:49;100598.81;;;26.60;47.90
4586;BME280;2305;50.118;8.952;2023-07-13T10:32:21;100587.75;;;26.68;48.16
4586;BME280;2305;50.118;8.952;2023-07-13T10:34:51;100591.84;;;26.70;47.29
4586;BME280;2305;50.118;8.952;2023-07-13T10:37:26;100593.78;;;26.63;46.86
4586;BME280;2305;50.118;8.952;2023-07-13T10:39:57;100594.03;;;26.62;47.79
4586;BME280;2305;50.118;8.952;2023-07-13T10:42:29;100588.34;;;26.70;46.85
4586;BME280;2305;50.118;8.952;2023-07-13T10:44:58;100591.59;;;26.78;48.53
4586;BME280;2305;50.118;8.952;2023-07-13T10:47:26;100586.47;;;26.88;47.92
4586;BME280;2305;50.118;8.952;2023-07-13T10:49:58;100602.81;;;27.00;47.60
4586;BME280;2305;50.118;8.952;2023-07-13T10:52:51;100600.63;;;26.66;47.87
4586;BME280;2305;50.118;8.952;2023-07-13T10:55:36;100598.44;;;26.56;47.28
4586;BME280;2305;50.118;8.952;2023-07-13T10:58:18;100595.69;;;26.63;47.02
4586;BME280;2305;50.118;8.952;2023-07-13T11:00:49;100595.50;;;26.58;47.77
4586;BME280;2305;50.118;8.952;2023-07-13T11:03:20;100587.84;;;26.55;48.70
4586;BME280;2305;50.118;8.952;2023-07-13T11:05:51;100596.75;;;26.62;50.08
4586;BME280;2305;50.118;8.952;2023-07-13T11:08:35;100598.69;;;26.73;48.40
4586;BME280;2305;50.118;8.952;2023-07-13T11:11:35;100592.47;;;26.72;48.63
4586;BME280;2305;50.118;8.952;2023-07-13T11:14:27;100583.47;;;26.78;47.13
4586;BME280;2305;50.118;8.952;2023-07-13T11:16:56;100593.91;;;26.75;47.79
4586;BME280;2305;50.118;8.952;2023-07-13T11:19:38;100594.81;;;26.69;47.01
4586;BME280;2305;50.118;8.952;2023-07-13T11:22:37;100599.59;;;26.67;48.11
4586;BME280;2305;50.118;8.952;2023-07-13T11:25:27;100579.72;;;26.79;46.77
4586;BME280;2305;50.118;8.952;2023-07-13T11:28:13;100585.59;;;26.94;47.45
4586;BME280;2305;50.118;8.952;2023-07-13T11:30:49;100571.16;;;27.00;47.12
4586;BME280;2305;50.118;8.952;2023-07-13T11:33:19;100579.56;;;26.92;47.01
4586;BME280;2305;50.118;8.952;2023-07-13T11:35:57;100582.81;;;27.01;45.66
4586;BME280;2305;50.118;8.952;2023-07-13T11:38:32;100584.75;;;26.94;45.88
4586;BME280;2305;50.118;8.952;2023-07-13T11:41:04;100576.22;;;26.97;44.62
4586;BME280;2305;50.118;8.952;2023-07-13T11:43:33;100576.28;;;27.08;44.84
4586;BME280;2305;50.118;8.952;2023-07-13T11:46:15;100574.38;;;27.09;44.10
4586;BME280;2305;50.118;8.952;2023-07-13T11:48:44;100569.34;;;27.12;44.29
4586;BME280;2305;50.118;8.952;2023-07-13T11:51:19;100570.94;;;27.38;44.30
4586;BME280;2305;50.118;8.952;2023-07-13T11:53:50;100558.72;;;27.65;43.93
4586;BME280;2305;50.118;8.952;2023-07-13T11:56:22;100569.53;;;27.83;43.61
4586;BME280;2305;50.118;8.952;2023-07-13T11:58:54;100566.31;;;28.15;42.32
4586;BME280;2305;50.118;8.952;2023-07-13T12:01:26;100549.38;;;28.31;41.63
4586;BME280;2305;50.118;8.952;2023-07-13T12:03:59;100572.09;;;28.19;40.74
4586;BME280;2305;50.118;8.952;2023-07-13T12:06:31;100564.19;;;28.06;40.53
4586;BME280;2305;50.118;8.952;2023-07-13T12:09:00;100568.03;;;27.98;40.55
4586;BME280;2305;50.118;8.952;2023-07-13T12:11:35;100576.38;;;27.85;41.66
4586;BME280;2305;50.118;8.952;2023-07-13T12:14:14;100572.41;;;27.70;42.80
4586;BME280;2305;50.118;8.952;2023-07-13T12:16:44;100568.94;;;27.63;42.85
4586;BME280;2305;50.118;8.952;2023-07-13T12:19:19;100567.78;;;27.70;41.41
4586;BME280;2305;50.118;8.952;2023-07-13T12:21:53;100569.91;;;27.86;40.73
4586;BME280;2305;50.118;8.952;2023-07-13T12:24:23;100573.78;;;27.90;41.20
4586;BME280;2305;50.118;8.952;2023-07-13T12:26:54;100567.00;;;27.99;40.71
4586;BME280;2305;50.118;8.952;2023-07-13T12:29:25;100561.59;;;27.99;41.14
4586;BME280;2305;50.118;8.952;2023-07-13T12:31:54;100567.94;;;28.05;40.48
4586;BME280;2305;50.118;8.952;2023-07-13T12:34:24;100565.41;;;28.21;39.80
4586;BME280;2305;50.118;8.952;2023-07-13T12:36:54;100586.69;;;28.06;40.99
4586;BME280;2305;50.118;8.952;2023-07-13T12:39:24;100579.63;;;27.76;42.25
4586;BME280;2305;50.118;8.952;2023-07-13T12:42:13;100575.53;;;27.67;42.13
4586;BME280;2305;50.118;8.952;2023-07-13T12:44:51;100588.72;;;27.63;41.68
4586;BME280;2305;50.118;8.952;2023-07-13T12:47:21;100582.34;;;27.58;41.60
4586;BME280;2305;50.118;8.952;2023-07-13T12:49:53;100585.84;;;27.47;41.36
4586;BME280;2305;50.118;8.952;2023-07-13T12:52:23;100577.41;;;27.55;41.54
4586;BME280;2305;50.118;8.952;2023-07-13T12:54:55;100590.03;;;27.61;42.04
4586;BME280;2305;50.118;8.952;2023-07-13T12:57:32;100600.75;;;27.67;40.71
4586;BME280;2305;50.118;8.952;2023-07-13T13:00:21;100597.72;;;27.75;40.61
4586;BME280;2305;50.118;8.952;2023-07-13T13:02:53;100596.47;;;27.78;41.61
4586;BME280;2305;50.118;8.952;2023-07-13T13:05:44;100584.25;;;27.87;39.71
4586;BME280;2305;50.118;8.952;2023-07-13T13:08:15;100590.78;;;27.97;40.16
4586;BME280;2305;50.118;8.952;2023-07-13T13:10:44;100579.94;;;27.97;40.54
4586;BME280;2305;50.118;8.952;2023-07-13T13:13:12;100579.50;;;28.00;40.01
4586;BME280;2305;50.118;8.952;2023-07-13T13:15:42;100581.94;;;28.02;39.58
4586;BME280;2305;50.118;8.952;2023-07-13T13:18:15;100584.75;;;27.95;40.02
4586;BME280;2305;50.118;8.952;2023-07-13T13:20:43;100593.09;;;27.82;40.54
4586;BME280;2305;50.118;8.952;2023-07-13T13:23:13;100582.25;;;27.82;40.42
4586;BME280;2305;50.118;8.952;2023-07-13T13:25:45;100595.91;;;27.76;40.77
4586;BME280;2305;50.118;8.952;2023-07-13T13:28:14;100588.25;;;27.84;40.56
4586;BME280;2305;50.118;8.952;2023-07-13T13:30:47;100589.78;;;28.10;41.42